Time;durP1;ratioP1;P1;durP2;ratioP2;P2;SDS_P1;SDS_P2;PMS_P1;PMS_P2;Temp;Humidity;BMP_temperature;BMP_pressure;BME280_temperature;BME280_humidity;BME280_pressure;Samples;Min_cycle;Max_cycle;Signal;HPM_P1;HPM_P2
2023/07/31 00:00:38;;;;;;;21.85;15.82;;;14.60;93.90;;;;;;5074116;28;20172;-86
2023/07/31 00:03:04;;;;;;;21.57;16.27;;;14.60;93.80;;;;;;5073427;28;20183;-88
2023/07/31 00:05:29;;;;;;;21.55;17.35;;;14.50;93.80;;;;;;5073933;28;20195;-87
2023/07/31 00:07:55;;;;;;;20.55;17.13;;;14.50;93.80;;;;;;5074582;28;20171;-87
2023/07/31 00:10:21;;;;;;;18.55;16.83;;;14.60;93.80;;;;;;5073993;28;20651;-87
2023/07/31 00:12:47;;;;;;;20.42;17.15;;;14.60;93.70;;;;;;5073973;28;20175;-87
2023/07/31 00:15:14;;;;;;;20.65;16.27;;;14.70;93.50;;;;;;5073797;28;20210;-86
2023/07/31 00:17:39;;;;;;;23.83;16.17;;;14.80;93.20;;;;;;5073872;28;20185;-88
2023/07/31 00:20:05;;;;;;;24.75;17.27;;;14.90;93.00;;;;;;5073747;28;20274;-88
2023/07/31 00:22:31;;;;;;;17.73;15.93;;;15.00;92.60;;;;;;5073762;28;20240;-88
2023/07/31 00:24:57;;;;;;;18.33;15.65;;;15.00;92.30;;;;;;5073701;28;20191;-87
2023/07/31 00:27:23;;;;;;;18.77;15.48;;;15.00;92.20;;;;;;5073711;28;20179;-87
2023/07/31 00:29:48;;;;;;;19.87;15.83;;;15.00;92.30;;;;;;5073743;28;20229;-87
2023/07/31 00:32:14;;;;;;;22.00;16.98;;;15.00;92.30;;;;;;5073482;28;20249;-87
2023/07/31 00:34:40;;;;;;;17.80;15.50;;;14.90;92.40;;;;;;5074611;28;20199;-87
2023/07/31 00:37:06;;;;;;;20.23;16.23;;;15.00;92.30;;;;;;5073365;28;20199;-87
2023/07/31 00:39:31;;;;;;;21.63;16.20;;;15.00;92.30;;;;;;5074226;28;20262;-87
2023/07/31 00:41:57;;;;;;;17.57;15.87;;;14.90;92.20;;;;;;5073258;28;20182;-86
2023/07/31 00:44:22;;;;;;;23.50;16.90;;;14.90;92.40;;;;;;5073251;28;20191;-87
2023/07/31 00:46:48;;;;;;;21.38;16.67;;;14.80;92.40;;;;;;5074459;28;20179;-86
2023/07/31 00:49:15;;;;;;;17.77;15.93;;;14.80;92.40;;;;;;5074308;28;20654;-87
2023/07/31 00:51:41;;;;;;;22.17;16.93;;;14.80;92.50;;;;;;5073194;28;20333;-87
2023/07/31 00:54:06;;;;;;;17.77;16.02;;;14.80;92.50;;;;;;5073091;28;20687;-86
2023/07/31 00:56:32;;;;;;;24.13;17.10;;;14.70;92.50;;;;;;5072909;28;20195;-87
2023/07/31 00:58:58;;;;;;;18.57;16.53;;;14.70;92.60;;;;;;5072953;28;20225;-87
2023/07/31 01:01:23;;;;;;;18.10;16.37;;;14.70;92.50;;;;;;5074510;28;20175;-87
2023/07/31 01:03:53;;;;;;;21.25;17.10;;;14.70;92.40;;;;;;5073001;28;20746;-87
2023/07/31 01:06:31;;;;;;;17.52;15.85;;;14.70;92.50;;;;;;5072925;28;20179;-87
2023/07/31 01:09:25;;;;;;;17.63;16.03;;;14.60;92.60;;;;;;5072808;28;20240;-87
2023/07/31 01:12:00;;;;;;;20.50;16.60;;;14.60;92.60;;;;;;5072831;28;20179;-87
2023/07/31 01:14:25;;;;;;;21.50;17.73;;;14.60;92.60;;;;;;5072172;28;20208;-87
2023/07/31 01:16:51;;;;;;;18.50;16.40;;;14.60;92.50;;;;;;5072000;28;20285;-87
2023/07/31 01:19:21;;;;;;;21.13;16.80;;;14.60;92.40;;;;;;5073752;28;20206;-87
2023/07/31 01:22:11;;;;;;;20.20;16.37;;;14.50;92.40;;;;;;5073722;28;20195;-87
2023/07/31 01:24:54;;;;;;;17.77;16.10;;;14.60;92.40;;;;;;5072469;28;20207;-87
2023/07/31 01:27:27;;;;;;;28.53;17.47;;;14.50;92.50;;;;;;5073616;28;20164;-87
2023/07/31 01:30:14;;;;;;;22.20;18.13;;;14.50;92.50;;;;;;5072420;28;20179;-87
2023/07/31 01:32:40;;;;;;;34.27;31.47;;;14.50;92.50;;;;;;5073319;28;20207;-87
2023/07/31 01:35:07;;;;;;;35.97;32.80;;;14.50;92.60;;;;;;5073451;28;20222;-87
2023/07/31 01:37:32;;;;;;;39.80;30.43;;;14.40;92.50;;;;;;5072191;28;20297;-87
2023/07/31 01:39:58;;;;;;;20.17;17.03;;;14.40;92.70;;;;;;5072335;28;20209;-88
2023/07/31 01:42:23;;;;;;;22.67;16.60;;;14.40;92.80;;;;;;5073540;28;20172;-87
2023/07/31 01:44:49;;;;;;;32.83;29.83;;;14.40;92.80;;;;;;5072115;28;20207;-87
2023/07/31 01:47:14;;;;;;;34.50;31.33;;;14.50;92.80;;;;;;5072115;28;20186;-87
2023/07/31 01:49:40;;;;;;;33.70;30.80;;;14.40;92.90;;;;;;5073369;28;20556;-87
2023/07/31 01:52:06;;;;;;;21.00;17.27;;;14.50;92.90;;;;;;5073370;28;20183;-87
2023/07/31 01:54:31;;;;;;;21.20;16.90;;;14.50;93.00;;;;;;5071966;28;20199;-87
2023/07/31 01:56:57;;;;;;;34.57;31.80;;;14.40;93.00;;;;;;5073479;28;20188;-87
2023/07/31 01:59:22;;;;;;;36.60;33.33;;;14.50;93.10;;;;;;5072335;28;20528;-87
2023/07/31 02:01:48;;;;;;;24.67;17.50;;;14.40;93.20;;;;;;5072049;28;20175;-87
2023/07/31 02:04:13;;;;;;;19.37;17.33;;;14.50;93.30;;;;;;5071946;28;20195;-86
2023/07/31 02:06:39;;;;;;;21.50;17.90;;;14.50;93.40;;;;;;5073215;28;20183;-87
2023/07/31 02:09:04;;;;;;;19.07;17.10;;;14.50;93.40;;;;;;5071933;28;20215;-88
2023/07/31 02:11:30;;;;;;;21.17;17.73;;;14.50;93.40;;;;;;5071982;28;20179;-87
2023/07/31 02:13:55;;;;;;;20.37;18.20;;;14.50;93.40;;;;;;5071944;28;20640;-87
2023/07/31 02:16:21;;;;;;;20.53;18.67;;;14.50;93.50;;;;;;5073038;28;20245;-87
2023/07/31 02:18:46;;;;;;;20.50;18.13;;;14.60;93.50;;;;;;5071845;28;20595;-87
2023/07/31 02:21:12;;;;;;;21.67;17.40;;;14.60;93.50;;;;;;5072906;28;20647;-88
2023/07/31 02:23:37;;;;;;;19.90;17.90;;;14.60;93.50;;;;;;5071785;28;20179;-88
2023/07/31 02:26:03;;;;;;;19.27;17.33;;;14.60;93.40;;;;;;5072129;28;20198;-87
2023/07/31 02:28:29;;;;;;;19.77;17.63;;;14.70;93.30;;;;;;5077395;28;20631;-87
2023/07/31 02:30:54;;;;;;;19.57;17.87;;;14.70;93.40;;;;;;5076003;28;20665;-88
2023/07/31 02:33:20;;;;;;;20.37;18.07;;;14.80;93.30;;;;;;5075768;28;20175;-87
2023/07/31 02:35:46;;;;;;;19.67;18.00;;;14.70;93.30;;;;;;5076943;28;20226;-88
2023/07/31 02:38:11;;;;;;;18.87;17.03;;;14.80;93.40;;;;;;5075718;28;20233;-88
2023/07/31 02:40:37;;;;;;;20.43;18.53;;;14.80;93.30;;;;;;5076871;28;20183;-87
2023/07/31 02:43:02;;;;;;;24.10;19.33;;;14.80;93.30;;;;;;5077153;28;20175;-87
2023/07/31 02:45:28;;;;;;;19.15;17.25;;;14.80;93.40;;;;;;5075526;28;20247;-87
2023/07/31 02:47:53;;;;;;;20.87;18.87;;;14.80;93.50;;;;;;5075516;28;20191;-88
2023/07/31 02:50:19;;;;;;;20.70;18.55;;;14.80;93.50;;;;;;5075390;28;20179;-87
2023/07/31 02:52:44;;;;;;;20.47;18.60;;;14.80;93.50;;;;;;5075522;28;20176;-88
2023/07/31 02:55:10;;;;;;;22.03;19.30;;;14.80;93.50;;;;;;5076621;28;20191;-87
2023/07/31 02:57:35;;;;;;;21.80;19.50;;;14.80;93.50;;;;;;5075301;28;20213;-88
2023/07/31 03:00:01;;;;;;;20.92;18.95;;;14.80;93.50;;;;;;5075279;28;20186;-88
2023/07/31 03:02:26;;;;;;;20.60;18.43;;;14.80;93.50;;;;;;5075295;28;20176;-87
2023/07/31 03:04:52;;;;;;;20.47;18.50;;;14.90;93.50;;;;;;5075168;28;20231;-87
2023/07/31 03:07:17;;;;;;;20.07;18.17;;;14.80;93.50;;;;;;5075099;28;20185;-88
2023/07/31 03:09:43;;;;;;;27.00;19.53;;;14.80;93.50;;;;;;5075232;28;20258;-87
2023/07/31 03:12:09;;;;;;;20.17;18.33;;;14.80;93.60;;;;;;5076418;28;20203;-87
2023/07/31 03:14:34;;;;;;;20.40;18.57;;;14.80;93.50;;;;;;5075094;28;20762;-87
2023/07/31 03:17:00;;;;;;;18.90;17.37;;;14.80;93.60;;;;;;5074970;28;20269;-88
2023/07/31 03:19:25;;;;;;;19.65;17.80;;;14.80;93.60;;;;;;5076188;28;20163;-88
2023/07/31 03:21:51;;;;;;;19.73;17.87;;;14.80;93.70;;;;;;5074917;28;20281;-87
2023/07/31 03:24:16;;;;;;;20.77;18.97;;;14.80;93.70;;;;;;5074818;28;20629;-88
2023/07/31 03:26:42;;;;;;;19.48;17.58;;;14.80;93.70;;;;;;5076089;28;20236;-87
2023/07/31 03:29:08;;;;;;;20.23;18.13;;;14.80;93.70;;;;;;5076093;28;20202;-87
2023/07/31 03:31:34;;;;;;;20.67;18.63;;;14.90;93.70;;;;;;5076018;28;20646;-87
2023/07/31 03:33:59;;;;;;;20.27;18.37;;;14.90;93.70;;;;;;5074723;28;20203;-87
2023/07/31 03:36:25;;;;;;;20.15;18.70;;;14.90;93.70;;;;;;5074655;28;20570;-87
2023/07/31 03:38:52;;;;;;;21.37;19.27;;;14.90;93.70;;;;;;5073455;28;20659;-87
2023/07/31 03:41:17;;;;;;;20.97;19.20;;;15.00;93.80;;;;;;5074656;28;20262;-88
2023/07/31 03:43:43;;;;;;;21.27;19.48;;;15.00;93.80;;;;;;5074469;28;20227;-87
2023/07/31 03:46:08;;;;;;;21.38;19.45;;;15.00;93.90;;;;;;5074405;28;20176;-88
2023/07/31 03:48:34;;;;;;;21.45;19.75;;;15.00;93.80;;;;;;5074477;28;20186;-87
2023/07/31 03:50:59;;;;;;;21.92;20.13;;;15.00;93.90;;;;;;5075529;28;20214;-87
2023/07/31 03:53:25;;;;;;;22.48;20.02;;;15.00;93.90;;;;;;5075333;28;20186;-87
2023/07/31 03:55:50;;;;;;;20.73;19.00;;;15.10;93.80;;;;;;5074303;28;20234;-88
2023/07/31 03:58:16;;;;;;;22.63;20.57;;;15.10;93.80;;;;;;5074593;28;20262;-87
2023/07/31 04:00:42;;;;;;;27.13;20.43;;;15.10;93.80;;;;;;5074450;28;20661;-88
2023/07/31 04:03:07;;;;;;;22.38;20.25;;;15.10;93.90;;;;;;5074115;28;20553;-88
2023/07/31 04:05:33;;;;;;;23.73;21.77;;;15.10;93.90;;;;;;5074202;28;20203;-87
2023/07/31 04:07:58;;;;;;;23.58;21.67;;;15.10;93.90;;;;;;5074164;28;20269;-88
2023/07/31 04:10:24;;;;;;;23.65;21.27;;;15.20;93.90;;;;;;5075189;28;20174;-87
2023/07/31 04:12:49;;;;;;;22.73;21.13;;;15.20;93.90;;;;;;5074477;28;20170;-88
2023/07/31 04:15:15;;;;;;;23.67;21.70;;;15.10;93.80;;;;;;5075331;28;20727;-87
2023/07/31 04:17:40;;;;;;;24.17;22.15;;;15.20;93.80;;;;;;5073937;28;20740;-87
2023/07/31 04:20:06;;;;;;;25.92;23.63;;;15.20;93.80;;;;;;5075575;28;20175;-88
2023/07/31 04:22:32;;;;;;;25.90;23.77;;;15.20;93.80;;;;;;5074555;28;20190;-87
2023/07/31 04:24:58;;;;;;;23.35;21.70;;;15.20;93.80;;;;;;5073846;28;20237;-88
2023/07/31 04:27:23;;;;;;;24.90;22.92;;;15.20;93.80;;;;;;5073687;28;20182;-87
2023/07/31 04:29:49;;;;;;;25.35;23.20;;;15.20;93.80;;;;;;5074558;28;20203;-88
2023/07/31 04:32:16;;;;;;;24.23;22.52;;;15.20;93.60;;;;;;5073633;28;20536;-87
2023/07/31 04:34:42;;;;;;;22.13;20.63;;;15.20;93.60;;;;;;5073568;28;20191;-88
2023/07/31 04:37:07;;;;;;;21.20;19.80;;;15.20;93.60;;;;;;5073492;28;20202;-87
2023/07/31 04:39:33;;;;;;;20.92;19.42;;;15.20;93.60;;;;;;5073509;28;20172;-88
2023/07/31 04:41:58;;;;;;;22.38;20.65;;;15.20;93.70;;;;;;5073407;28;20695;-88
2023/07/31 04:44:24;;;;;;;22.13;20.27;;;15.20;93.80;;;;;;5074943;28;20194;-88
2023/07/31 04:46:49;;;;;;;22.02;20.33;;;15.20;93.90;;;;;;5073289;28;20174;-87
2023/07/31 04:49:15;;;;;;;20.40;19.10;;;15.20;93.90;;;;;;5074476;28;20181;-87
2023/07/31 04:51:40;;;;;;;20.52;19.23;;;15.20;93.90;;;;;;5074344;28;20527;-88
2023/07/31 04:54:06;;;;;;;20.88;19.58;;;15.20;93.80;;;;;;5073081;28;20206;-88
2023/07/31 04:56:31;;;;;;;21.33;19.58;;;15.20;93.90;;;;;;5073026;28;20245;-88
2023/07/31 04:58:57;;;;;;;21.77;20.27;;;15.20;94.00;;;;;;5074303;28;20635;-88
2023/07/31 05:01:22;;;;;;;20.85;19.38;;;15.30;94.10;;;;;;5073022;28;20186;-88
2023/07/31 05:03:48;;;;;;;21.95;20.50;;;15.20;94.10;;;;;;5073031;28;20218;-88
2023/07/31 05:06:15;;;;;;;21.30;19.90;;;15.20;94.10;;;;;;5074174;28;20182;-88
2023/07/31 05:08:40;;;;;;;20.73;19.35;;;15.20;94.10;;;;;;5072842;28;20182;-88
2023/07/31 05:11:06;;;;;;;21.98;20.50;;;15.20;94.20;;;;;;5072866;28;20179;-88
2023/07/31 05:13:31;;;;;;;22.90;21.30;;;15.20;94.30;;;;;;5072760;28;20635;-88
2023/07/31 05:15:57;;;;;;;23.92;22.42;;;15.20;94.40;;;;;;5073832;28;20198;-88
2023/07/31 05:18:23;;;;;;;24.10;22.40;;;15.20;94.50;;;;;;5072808;28;20179;-88
2023/07/31 05:20:48;;;;;;;24.35;22.48;;;15.20;94.50;;;;;;5072580;28;20171;-88
2023/07/31 05:23:14;;;;;;;24.33;22.75;;;15.20;94.50;;;;;;5072597;28;20159;-88
2023/07/31 05:25:39;;;;;;;25.63;24.02;;;15.20;94.70;;;;;;5072480;28;20195;-88
2023/07/31 05:28:05;;;;;;;25.33;23.63;;;15.20;94.70;;;;;;5072594;28;20229;-89
2023/07/31 05:30:31;;;;;;;25.50;23.77;;;15.20;94.70;;;;;;5073890;28;20185;-88
2023/07/31 05:32:57;;;;;;;25.10;23.50;;;15.20;94.70;;;;;;5072545;28;20617;-88
2023/07/31 05:35:22;;;;;;;25.50;23.85;;;15.20;94.80;;;;;;5072395;28;20191;-88
2023/07/31 05:37:48;;;;;;;26.15;24.45;;;15.20;94.80;;;;;;5073726;28;20175;-89
2023/07/31 05:40:14;;;;;;;25.27;23.58;;;15.20;94.90;;;;;;5072377;28;20195;-88
2023/07/31 05:42:39;;;;;;;26.48;24.58;;;15.20;94.90;;;;;;5073642;28;20173;-87
2023/07/31 05:45:06;;;;;;;25.65;23.95;;;15.20;94.90;;;;;;5072771;28;20638;-89
2023/07/31 05:47:32;;;;;;;26.27;24.48;;;15.20;94.90;;;;;;5073405;28;20183;-89
2023/07/31 05:49:57;;;;;;;38.55;36.15;;;15.20;95.00;;;;;;5072361;28;20175;-88
2023/07/31 05:52:23;;;;;;;40.15;37.60;;;15.20;95.00;;;;;;5073563;28;20692;-89
2023/07/31 05:54:48;;;;;;;42.20;39.60;;;15.20;95.00;;;;;;5072166;28;20199;-88
2023/07/31 05:57:14;;;;;;;28.13;26.33;;;15.20;95.10;;;;;;5073279;28;20206;-90
2023/07/31 05:59:39;;;;;;;29.42;27.38;;;15.20;95.10;;;;;;5072113;28;20171;-88
2023/07/31 06:02:06;;;;;;;41.88;39.20;;;15.20;95.10;;;;;;5071543;28;20245;-89
2023/07/31 06:04:31;;;;;;;41.47;38.67;;;15.30;95.10;;;;;;5072164;28;20195;-89
2023/07/31 06:06:57;;;;;;;28.77;26.48;;;15.20;95.00;;;;;;5073281;28;20295;-88
2023/07/31 06:09:22;;;;;;;28.13;26.33;;;15.20;95.10;;;;;;5072198;28;20175;-89
2023/07/31 06:11:48;;;;;;;29.10;27.25;;;15.20;95.10;;;;;;5072299;28;20179;-89
2023/07/31 06:14:13;;;;;;;38.88;36.47;;;15.30;95.10;;;;;;5073333;28;20701;-89
2023/07/31 06:16:39;;;;;;;42.08;39.45;;;15.20;95.10;;;;;;5073516;28;20677;-88
2023/07/31 06:19:04;;;;;;;27.08;25.38;;;15.30;95.10;;;;;;5071915;28;20175;-89
2023/07/31 06:21:31;;;;;;;26.63;24.95;;;15.30;95.10;;;;;;5072003;28;20201;-89
2023/07/31 06:23:56;;;;;;;26.23;24.60;;;15.30;95.20;;;;;;5072121;28;20202;-89
2023/07/31 06:26:22;;;;;;;26.77;24.98;;;15.30;95.20;;;;;;5072139;28;20607;-90
2023/07/31 06:28:47;;;;;;;27.88;26.08;;;15.30;95.20;;;;;;5073457;28;20202;-89
2023/07/31 06:31:13;;;;;;;27.35;25.65;;;15.30;95.10;;;;;;5071807;28;20179;-89
2023/07/31 06:33:38;;;;;;;29.92;28.02;;;15.30;95.30;;;;;;5072280;28;20191;-89
2023/07/31 06:36:04;;;;;;;28.90;27.10;;;15.30;95.30;;;;;;5071679;28;20195;-89
2023/07/31 06:38:29;;;;;;;24.63;23.02;;;15.30;95.30;;;;;;5072041;28;20263;-89
2023/07/31 06:40:55;;;;;;;24.58;23.00;;;15.40;95.30;;;;;;5071827;28;20179;-89
2023/07/31 06:43:21;;;;;;;25.08;23.48;;;15.50;95.40;;;;;;5071829;28;20262;-89
2023/07/31 06:45:48;;;;;;;26.15;24.55;;;15.50;95.30;;;;;;5073208;28;20704;-89
2023/07/31 06:48:13;;;;;;;27.00;25.30;;;15.50;95.30;;;;;;5071825;28;20229;-89
2023/07/31 06:50:39;;;;;;;28.42;26.60;;;15.50;95.30;;;;;;5071745;28;20183;-89
2023/07/31 06:53:04;;;;;;;28.52;26.73;;;15.50;95.40;;;;;;5072191;28;20209;-88
2023/07/31 06:55:30;;;;;;;28.90;27.10;;;15.50;95.30;;;;;;5071495;28;20670;-88
2023/07/31 06:57:56;;;;;;;28.35;26.42;;;15.40;95.20;;;;;;5071638;28;20178;-89
2023/07/31 07:00:23;;;;;;;29.55;27.73;;;15.50;95.20;;;;;;5073225;28;20167;-89
2023/07/31 07:02:49;;;;;;;30.63;28.52;;;15.50;95.10;;;;;;5071726;28;20225;-89
2023/07/31 07:05:16;;;;;;;29.70;27.80;;;15.50;95.20;;;;;;5072253;28;20663;-89
2023/07/31 07:07:42;;;;;;;29.05;26.85;;;15.50;95.20;;;;;;5071687;28;20553;-89
2023/07/31 07:10:08;;;;;;;31.17;29.17;;;15.50;95.10;;;;;;5072617;28;20198;-89
2023/07/31 07:12:34;;;;;;;30.90;28.90;;;15.50;95.20;;;;;;5072491;28;20177;-89
2023/07/31 07:15:01;;;;;;;29.35;27.45;;;15.50;95.20;;;;;;5075132;28;20282;-89
2023/07/31 07:17:32;;;;;;;29.95;27.95;;;15.60;95.30;;;;;;5076589;28;20233;-89
2023/07/31 07:19:59;;;;;;;32.30;30.20;;;15.50;95.30;;;;;;5075086;28;20187;-89
2023/07/31 07:22:25;;;;;;;31.02;29.13;;;15.50;95.30;;;;;;5075089;28;20189;-89
2023/07/31 07:24:51;;;;;;;31.42;29.48;;;15.60;95.40;;;;;;5076500;28;20187;-89
2023/07/31 07:27:16;;;;;;;30.58;28.58;;;15.50;95.40;;;;;;5076155;28;20265;-89
2023/07/31 07:29:42;;;;;;;32.17;30.08;;;15.50;95.40;;;;;;5075651;28;20175;-89
2023/07/31 07:32:08;;;;;;;31.05;29.02;;;15.60;95.40;;;;;;5075069;28;20534;-88
2023/07/31 07:34:33;;;;;;;28.38;26.58;;;15.60;95.50;;;;;;5074985;28;20685;-88
2023/07/31 07:36:59;;;;;;;32.00;29.90;;;15.70;95.50;;;;;;5076270;28;20346;-88
2023/07/31 07:39:24;;;;;;;31.60;29.60;;;15.80;95.60;;;;;;5074571;28;20305;-89
2023/07/31 07:41:50;;;;;;;32.03;29.83;;;15.80;95.50;;;;;;5076200;28;20230;-88
2023/07/31 07:44:16;;;;;;;32.28;30.27;;;15.80;95.40;;;;;;5075671;28;20257;-88
2023/07/31 07:46:41;;;;;;;31.77;29.80;;;15.80;95.50;;;;;;5074444;28;20179;-88
2023/07/31 07:49:13;;;;;;;31.92;29.92;;;15.80;95.30;;;;;;5074807;28;20187;-89
2023/07/31 07:51:39;;;;;;;31.77;29.77;;;15.90;95.40;;;;;;5076244;28;20541;-88
2023/07/31 07:54:04;;;;;;;34.22;31.95;;;16.00;95.40;;;;;;5076541;28;20205;-89
2023/07/31 07:56:30;;;;;;;32.97;30.88;;;15.90;95.20;;;;;;5075459;28;20210;-88
2023/07/31 07:58:55;;;;;;;31.42;29.27;;;15.90;95.20;;;;;;5074299;28;20587;-89
2023/07/31 08:01:21;;;;;;;32.55;30.20;;;15.90;95.10;;;;;;5075411;28;20179;-89
2023/07/31 08:03:47;;;;;;;47.63;44.63;;;16.00;95.20;;;;;;5074942;28;20191;-89
2023/07/31 08:06:14;;;;;;;48.08;45.10;;;16.00;95.00;;;;;;5074150;28;20186;-89
2023/07/31 08:08:39;;;;;;;43.20;40.50;;;15.90;95.00;;;;;;5074510;28;20207;-89
2023/07/31 08:11:05;;;;;;;34.50;32.20;;;16.00;95.00;;;;;;5074724;28;20199;-89
2023/07/31 08:13:30;;;;;;;34.70;32.53;;;16.00;95.10;;;;;;5074288;28;20266;-89
2023/07/31 08:15:56;;;;;;;47.72;44.63;;;16.00;95.10;;;;;;5075963;28;20206;-89
2023/07/31 08:18:22;;;;;;;47.22;44.33;;;15.90;95.00;;;;;;5073954;28;20172;-89
2023/07/31 08:20:47;;;;;;;31.48;29.48;;;16.00;95.20;;;;;;5073783;28;20182;-89
2023/07/31 08:23:13;;;;;;;31.55;29.55;;;16.00;95.30;;;;;;5074417;28;20524;-89
2023/07/31 08:25:39;;;;;;;33.78;31.42;;;16.00;95.30;;;;;;5073785;28;20187;-89
2023/07/31 08:28:06;;;;;;;46.67;43.78;;;16.10;95.40;;;;;;5075168;28;20189;-89
2023/07/31 08:30:33;;;;;;;46.10;43.33;;;16.10;95.40;;;;;;5075101;28;20222;-89
2023/07/31 08:32:59;;;;;;;30.25;28.25;;;16.00;95.30;;;;;;5073766;28;20678;-89
2023/07/31 08:35:25;;;;;;;30.98;29.08;;;16.00;95.20;;;;;;5074929;28;20222;-89
2023/07/31 08:37:51;;;;;;;31.52;29.63;;;15.90;95.10;;;;;;5073667;28;20252;-89
2023/07/31 08:40:16;;;;;;;30.20;28.17;;;15.90;95.20;;;;;;5073444;28;20179;-88
2023/07/31 08:42:50;;;;;;;29.67;27.88;;;15.90;95.20;;;;;;5073588;28;20175;-90
2023/07/31 08:45:17;;;;;;;29.05;27.27;;;16.00;95.30;;;;;;5073725;28;20682;-89
2023/07/31 08:47:46;;;;;;;29.98;28.02;;;16.20;95.40;;;;;;5074477;28;20175;-90
2023/07/31 08:50:15;;;;;;;29.48;27.65;;;16.20;95.40;;;;;;5073302;28;20182;-88
2023/07/31 08:52:41;;;;;;;30.35;28.45;;;16.30;95.50;;;;;;5074497;28;20258;-89
2023/07/31 08:55:08;;;;;;;31.40;29.50;;;16.20;95.40;;;;;;5073204;28;20647;-88
2023/07/31 08:57:35;;;;;;;32.00;30.10;;;16.10;95.20;;;;;;5073098;28;20233;-89
2023/07/31 09:00:02;;;;;;;31.27;29.38;;;16.10;95.20;;;;;;5073027;28;20167;-88
2023/07/31 09:03:04;;;;;;;31.77;29.77;;;16.10;95.10;;;;;;5073349;28;20661;-87
2023/07/31 09:05:31;;;;;;;32.38;30.45;;;16.20;95.20;;;;;;5068127;28;20210;-89
2023/07/31 09:07:57;;;;;;;31.67;29.85;;;16.10;95.10;;;;;;5073101;28;20176;-88
2023/07/31 09:10:23;;;;;;;31.83;29.92;;;16.20;95.10;;;;;;5072863;28;20549;-89
2023/07/31 09:12:50;;;;;;;32.72;30.73;;;16.20;95.10;;;;;;5072824;28;20262;-88
2023/07/31 09:15:16;;;;;;;32.30;30.35;;;16.20;95.00;;;;;;5072668;28;20187;-88
2023/07/31 09:17:41;;;;;;;33.15;31.23;;;16.20;94.90;;;;;;5072711;28;20252;-90
2023/07/31 09:20:18;;;;;;;32.92;31.02;;;16.20;94.90;;;;;;5073446;28;20171;-88
2023/07/31 09:22:45;;;;;;;45.45;42.60;;;16.30;94.90;;;;;;5072796;28;20211;-89
2023/07/31 09:25:21;;;;;;;49.75;46.75;;;16.20;94.60;;;;;;5072537;28;20199;-89
2023/07/31 09:27:54;;;;;;;33.35;31.35;;;16.20;94.70;;;;;;5072565;28;20175;-89
2023/07/31 09:30:20;;;;;;;33.72;31.73;;;16.30;94.70;;;;;;5073958;28;20178;-88
2023/07/31 09:32:47;;;;;;;32.83;30.92;;;16.20;94.40;;;;;;5073705;28;20167;-89
2023/07/31 09:35:28;;;;;;;34.42;32.33;;;16.40;94.80;;;;;;5072261;28;20198;-89
2023/07/31 09:37:57;;;;;;;34.92;32.72;;;16.30;94.50;;;;;;5071856;28;20286;-89
2023/07/31 09:40:27;;;;;;;33.47;31.15;;;16.40;94.60;;;;;;5072366;28;20179;-89
2023/07/31 09:42:53;;;;;;;33.47;31.35;;;16.40;94.60;;;;;;5072274;28;20175;-89
2023/07/31 09:45:19;;;;;;;33.42;31.42;;;16.40;94.60;;;;;;5073057;28;20577;-89
2023/07/31 09:47:48;;;;;;;33.85;31.70;;;16.30;94.60;;;;;;5072235;28;20227;-89
2023/07/31 09:50:15;;;;;;;32.80;30.90;;;16.30;94.60;;;;;;5073455;28;20170;-89
2023/07/31 09:52:41;;;;;;;34.72;32.72;;;16.20;94.40;;;;;;5072201;28;20210;-89
2023/07/31 09:55:08;;;;;;;34.30;32.30;;;16.20;94.60;;;;;;5072090;28;20230;-88
2023/07/31 09:57:36;;;;;;;34.83;32.83;;;16.10;94.40;;;;;;5072133;28;20195;-89
2023/07/31 10:00:02;;;;;;;33.45;31.45;;;15.90;93.80;;;;;;5071924;28;20638;-88
2023/07/31 10:02:29;;;;;;;32.72;30.83;;;15.90;94.20;;;;;;5073498;28;20171;-89
2023/07/31 10:04:58;;;;;;;32.78;30.67;;;15.90;94.00;;;;;;5071725;28;20222;-87
2023/07/31 10:07:25;;;;;;;32.47;30.58;;;15.80;93.70;;;;;;5071803;28;20385;-87
2023/07/31 10:09:52;;;;;;;32.95;31.05;;;15.90;93.60;;;;;;5073211;28;20179;-87
2023/07/31 10:12:21;;;;;;;33.47;31.35;;;16.00;93.50;;;;;;5071903;28;20179;-89
2023/07/31 10:14:47;;;;;;;33.50;31.40;;;15.90;93.20;;;;;;5071874;28;20234;-88
2023/07/31 10:17:14;;;;;;;33.28;31.17;;;15.90;93.40;;;;;;5071869;28;20199;-88
2023/07/31 10:19:40;;;;;;;36.00;33.75;;;16.00;93.50;;;;;;5073022;28;20665;-88
2023/07/31 10:22:07;;;;;;;34.38;32.38;;;16.00;93.50;;;;;;5071818;28;20187;-88
2023/07/31 10:24:34;;;;;;;34.15;31.90;;;15.80;93.30;;;;;;5071831;28;20191;-88
2023/07/31 10:27:02;;;;;;;35.20;33.00;;;15.70;93.10;;;;;;5072054;28;20229;-88
2023/07/31 10:29:29;;;;;;;35.67;33.58;;;15.80;93.30;;;;;;5071760;28;20187;-87
2023/07/31 10:31:57;;;;;;;36.10;33.92;;;16.00;93.60;;;;;;5071751;28;20175;-88
2023/07/31 10:34:23;;;;;;;35.17;33.08;;;16.20;93.70;;;;;;5072867;28;20187;-89
2023/07/31 10:36:49;;;;;;;36.17;33.92;;;16.20;93.70;;;;;;5071824;28;20218;-88
2023/07/31 10:39:36;;;;;;;36.85;34.58;;;16.00;93.50;;;;;;5071793;28;20168;-88
2023/07/31 10:42:12;;;;;;;35.45;33.35;;;16.00;93.70;;;;;;5071685;28;20171;-88
2023/07/31 10:44:43;;;;;;;36.00;33.90;;;16.00;93.80;;;;;;5073006;28;20254;-88
2023/07/31 10:47:08;;;;;;;35.35;33.28;;;16.00;93.70;;;;;;5071987;28;20225;-88
2023/07/31 10:49:34;;;;;;;32.85;30.77;;;16.00;93.70;;;;;;5075652;28;20175;-88
2023/07/31 10:52:02;;;;;;;35.28;33.10;;;16.10;93.80;;;;;;5075456;28;20171;-88
2023/07/31 10:54:28;;;;;;;35.67;33.55;;;16.20;93.60;;;;;;5075487;28;20701;-88
2023/07/31 10:56:53;;;;;;;33.80;31.90;;;16.20;93.30;;;;;;5075454;28;20195;-88
2023/07/31 10:59:20;;;;;;;59.67;56.08;;;16.20;93.10;;;;;;5076211;28;20258;-88
2023/07/31 11:01:53;;;;;;;64.10;60.40;;;16.20;92.90;;;;;;5075772;28;20209;-89
2023/07/31 11:04:26;;;;;;;40.95;38.42;;;16.20;92.80;;;;;;5075541;28;20222;-89
2023/07/31 11:06:59;;;;;;;39.30;36.97;;;16.30;92.70;;;;;;5075316;28;20168;-88
2023/07/31 11:09:30;;;;;;;40.17;37.88;;;16.30;92.50;;;;;;5075306;28;20167;-89
2023/07/31 11:11:55;;;;;;;41.85;39.45;;;16.20;92.50;;;;;;5075227;28;20168;-90
2023/07/31 11:14:21;;;;;;;43.45;40.85;;;16.30;92.50;;;;;;5075344;28;20679;-91
2023/07/31 11:16:50;;;;;;;41.97;39.55;;;16.30;92.50;;;;;;5075570;28;20210;-90
2023/07/31 11:19:23;;;;;;;43.50;41.00;;;16.30;92.60;;;;;;5075139;28;20622;-89
2023/07/31 11:21:49;;;;;;;42.72;40.13;;;16.30;92.50;;;;;;5076335;28;20655;-91
2023/07/31 11:24:14;;;;;;;44.15;41.55;;;16.30;92.40;;;;;;5074770;28;20192;-89
2023/07/31 11:26:51;;;;;;;43.28;40.83;;;16.30;92.60;;;;;;5075109;28;20203;-90
2023/07/31 11:29:18;;;;;;;42.45;39.67;;;16.30;92.60;;;;;;5074943;28;20656;-89
2023/07/31 11:31:45;;;;;;;41.28;38.97;;;16.30;92.50;;;;;;5075426;28;20185;-88
2023/07/31 11:34:10;;;;;;;37.10;34.90;;;16.30;92.30;;;;;;5074700;28;20226;-89
2023/07/31 11:36:36;;;;;;;62.08;58.47;;;16.10;91.90;;;;;;5074635;28;20621;-88
2023/07/31 11:39:09;;;;;;;64.00;60.30;;;16.10;91.80;;;;;;5074623;28;20550;-88
2023/07/31 11:41:34;;;;;;;68.35;64.45;;;16.10;91.80;;;;;;5074617;28;20600;-88
2023/07/31 11:44:00;;;;;;;40.67;38.33;;;16.20;92.10;;;;;;5074422;28;20231;-87
2023/07/31 11:46:26;;;;;;;41.22;38.83;;;16.20;92.10;;;;;;5074544;28;20218;-88
2023/07/31 11:48:52;;;;;;;61.55;57.85;;;16.20;92.20;;;;;;5074379;28;20171;-87
2023/07/31 11:51:21;;;;;;;64.65;60.85;;;16.10;92.10;;;;;;5075656;28;20187;-89
2023/07/31 11:53:53;;;;;;;42.60;40.20;;;16.00;91.80;;;;;;5075092;28;20199;-86
2023/07/31 11:56:20;;;;;;;45.00;42.28;;;15.80;91.60;;;;;;5074892;28;20251;-86
2023/07/31 11:58:47;;;;;;;44.90;42.17;;;15.80;91.80;;;;;;5074503;28;20172;-86
2023/07/31 12:01:15;;;;;;;42.55;40.13;;;15.80;92.10;;;;;;5074552;28;20183;-86
2023/07/31 12:03:42;;;;;;;42.33;39.83;;;15.70;92.10;;;;;;5074659;28;20195;-86
2023/07/31 12:06:08;;;;;;;38.75;36.28;;;15.70;92.40;;;;;;5074772;28;20179;-86
2023/07/31 12:08:34;;;;;;;59.58;56.08;;;15.50;92.20;;;;;;5074724;28;20266;-86
2023/07/31 12:11:05;;;;;;;60.47;57.05;;;15.50;92.40;;;;;;5074877;28;20205;-85
2023/07/31 12:13:31;;;;;;;41.08;38.75;;;15.60;92.70;;;;;;5075584;28;20203;-85
2023/07/31 12:16:02;;;;;;;41.28;38.97;;;15.50;92.60;;;;;;5074891;28;20678;-85
2023/07/31 12:18:30;;;;;;;44.03;41.55;;;15.40;92.70;;;;;;5074694;28;20576;-87
2023/07/31 12:21:00;;;;;;;42.40;40.05;;;15.50;93.10;;;;;;5074251;28;20724;-86
2023/07/31 12:23:28;;;;;;;42.92;40.42;;;15.60;93.30;;;;;;5074448;28;20168;-86
2023/07/31 12:26:03;;;;;;;43.25;40.75;;;15.60;93.40;;;;;;5074441;28;20262;-87